Airfield :







YOU CAN JOIN US ON...

 
LOGIN :

Register | Disclaimer

   EN    FR    IT 

 









Legend :    VFR   Marginal VFR   IFR   Intensive IFR   Very Intensive IFR
Visi :
Ceiling :
>= 8 km
>= 3000ft
5 to 8 km
1000 to 3000 ft
1500m to 5 km
500 to 1000 ft
800 to 1500m
200 to 500 ft
< 800m
< 200 ft
Symbols :   Thunderstorms  Fog  Heavy snow  Heavy precipitations  Wind > 20 kt






- Airport Elevation : 90 ft
- IATA code : YHU


CYHU - Montréal Saint-Hubert

CURRENT METAR :
  • 080403Z AUTO 19010G17KT 9SM OVC210 26/20 A2988 RMK LTNG DIST N NE E SLP119 DENSITY ALT 1300FT

EXPIRED METARs :
  • 080300Z AUTO 19010G15KT 9SM VCTS SCT075 SCT095 BKN120 OVC150 26/20 A2989 RMK LTNG DIST N NW SLP121 DENSITY ALT 1300FT
  • 080242Z AUTO 18010G18KT 9SM VCTS FEW110 BKN150 BKN240 26/19 A2988 RMK LTNG DIST NW SLP119 DENSITY ALT 1400FT
  • 080200Z AUTO 17010G15KT 9SM FEW070 BKN240 26/19 A2988 RMK SLP119 DENSITY ALT 1400FT

TAF AMD TAF CYHU
Valid from the 08 at 02:00 until the 09 at 00:00 UTC


080248Z 0802/0824 18012KT P6SM SCT120 BKN150
TEMPO 0802/0804 P6SM VCTS SCT070CB BKN100
FM080600 19010KT P6SM BKN070
TEMPO 0806/0812 P6SM -SHRA
PROB40 0807/0812 VRB15G30KT 2SM TSRA BR BKN030 OVC060CB
FM081200 21008KT P6SM SCT015 BKN030
TEMPO 0812/0816 P6SM -SHRA BKN015 OVC030
BECMG 0814/0815 23015KT
FM081800 33012KT P6SM BKN050 RMK FCST BASED ON AUTO OBS. NXT FCST BY 080600Z
CZUL FIR / North America



MET'MAP, your aeronautical weather chart ! - Copyright ORBIFLY December 2007 - Disclaimer

ORBIFLY MET'MAP TEAM :

Programming & Development : Alexandra Zaïnal
Concept & original design : Baudouin d'Aumeries
Assistance for programming : Marc-Olivier Méhu
Technical & hardware support : Manuel Goepfert

Contact : metmap@orbifly.com




SOURCES & CREDITS :

   NOAA